sensor_id;sensor_type;location;lat;lon;timestamp;P1;durP1;ratioP1;P2;durP2;ratioP2
77055;SDS011;67471;44.918;8.614;2024-01-06T00:02:03;7.13;;;5.80;;
77055;SDS011;67471;44.918;8.614;2024-01-06T00:05:07;8.23;;;5.97;;
77055;SDS011;67471;44.918;8.614;2024-01-06T00:08:11;9.25;;;6.20;;
77055;SDS011;67471;44.918;8.614;2024-01-06T00:11:14;7.68;;;6.07;;
77055;SDS011;67471;44.918;8.614;2024-01-06T00:14:18;9.18;;;6.97;;
77055;SDS011;67471;44.918;8.614;2024-01-06T00:17:22;10.18;;;6.68;;
77055;SDS011;67471;44.918;8.614;2024-01-06T00:20:26;8.20;;;6.82;;
77055;SDS011;67471;44.918;8.614;2024-01-06T00:23:30;8.13;;;5.97;;
77055;SDS011;67471;44.918;8.614;2024-01-06T00:26:35;6.95;;;5.78;;
77055;SDS011;67471;44.918;8.614;2024-01-06T00:29:38;7.55;;;6.20;;
77055;SDS011;67471;44.918;8.614;2024-01-06T00:32:42;7.75;;;5.82;;
77055;SDS011;67471;44.918;8.614;2024-01-06T00:35:46;8.57;;;6.53;;
77055;SDS011;67471;44.918;8.614;2024-01-06T00:38:50;8.65;;;6.55;;
77055;SDS011;67471;44.918;8.614;2024-01-06T00:41:54;8.07;;;6.25;;
77055;SDS011;67471;44.918;8.614;2024-01-06T00:44:57;8.20;;;6.55;;
77055;SDS011;67471;44.918;8.614;2024-01-06T00:48:01;8.25;;;6.95;;
77055;SDS011;67471;44.918;8.614;2024-01-06T00:51:05;7.65;;;6.47;;
77055;SDS011;67471;44.918;8.614;2024-01-06T00:54:09;9.27;;;6.53;;
77055;SDS011;67471;44.918;8.614;2024-01-06T00:57:12;8.27;;;6.80;;
77055;SDS011;67471;44.918;8.614;2024-01-06T01:00:16;8.98;;;6.57;;
77055;SDS011;67471;44.918;8.614;2024-01-06T01:03:20;8.75;;;6.50;;
77055;SDS011;67471;44.918;8.614;2024-01-06T01:06:24;8.68;;;7.05;;
77055;SDS011;67471;44.918;8.614;2024-01-06T01:09:27;8.77;;;6.55;;
77055;SDS011;67471;44.918;8.614;2024-01-06T01:12:31;8.57;;;7.00;;
77055;SDS011;67471;44.918;8.614;2024-01-06T01:15:35;7.55;;;6.18;;
77055;SDS011;67471;44.918;8.614;2024-01-06T01:18:39;7.90;;;6.20;;
77055;SDS011;67471;44.918;8.614;2024-01-06T01:21:43;9.25;;;6.45;;
77055;SDS011;67471;44.918;8.614;2024-01-06T01:24:46;9.20;;;6.75;;
77055;SDS011;67471;44.918;8.614;2024-01-06T01:27:50;7.43;;;6.60;;
77055;SDS011;67471;44.918;8.614;2024-01-06T01:30:54;7.95;;;6.40;;
77055;SDS011;67471;44.918;8.614;2024-01-06T01:33:58;8.07;;;6.68;;
77055;SDS011;67471;44.918;8.614;2024-01-06T01:37:01;9.18;;;6.45;;
77055;SDS011;67471;44.918;8.614;2024-01-06T01:40:05;8.38;;;6.85;;
77055;SDS011;67471;44.918;8.614;2024-01-06T01:43:19;8.77;;;6.70;;
77055;SDS011;67471;44.918;8.614;2024-01-06T01:46:24;8.77;;;7.00;;
77055;SDS011;67471;44.918;8.614;2024-01-06T01:49:33;10.45;;;7.80;;
77055;SDS011;67471;44.918;8.614;2024-01-06T01:52:37;9.68;;;7.05;;
77055;SDS011;67471;44.918;8.614;2024-01-06T01:55:44;11.02;;;7.47;;
77055;SDS011;67471;44.918;8.614;2024-01-06T01:58:49;11.55;;;8.80;;
77055;SDS011;67471;44.918;8.614;2024-01-06T02:01:52;11.65;;;8.70;;
77055;SDS011;67471;44.918;8.614;2024-01-06T02:04:56;10.05;;;8.25;;
77055;SDS011;67471;44.918;8.614;2024-01-06T02:08:00;10.35;;;8.30;;
77055;SDS011;67471;44.918;8.614;2024-01-06T02:11:04;9.60;;;7.47;;
77055;SDS011;67471;44.918;8.614;2024-01-06T02:14:08;11.73;;;8.07;;
77055;SDS011;67471;44.918;8.614;2024-01-06T02:17:12;9.88;;;7.57;;
77055;SDS011;67471;44.918;8.614;2024-01-06T02:20:16;10.65;;;8.13;;
77055;SDS011;67471;44.918;8.614;2024-01-06T02:23:22;12.57;;;8.20;;
77055;SDS011;67471;44.918;8.614;2024-01-06T02:26:26;10.00;;;7.50;;
77055;SDS011;67471;44.918;8.614;2024-01-06T02:29:30;10.00;;;7.97;;
77055;SDS011;67471;44.918;8.614;2024-01-06T02:32:34;10.93;;;7.75;;
77055;SDS011;67471;44.918;8.614;2024-01-06T02:35:37;10.95;;;8.55;;
77055;SDS011;67471;44.918;8.614;2024-01-06T02:38:43;11.55;;;8.02;;
77055;SDS011;67471;44.918;8.614;2024-01-06T02:41:46;11.68;;;8.55;;
77055;SDS011;67471;44.918;8.614;2024-01-06T02:44:50;9.75;;;7.50;;
77055;SDS011;67471;44.918;8.614;2024-01-06T02:47:54;10.25;;;7.70;;
77055;SDS011;67471;44.918;8.614;2024-01-06T02:50:57;12.57;;;8.57;;
77055;SDS011;67471;44.918;8.614;2024-01-06T02:54:01;14.02;;;10.75;;
77055;SDS011;67471;44.918;8.614;2024-01-06T02:57:05;12.70;;;10.05;;
77055;SDS011;67471;44.918;8.614;2024-01-06T03:00:09;12.25;;;9.40;;
77055;SDS011;67471;44.918;8.614;2024-01-06T03:03:12;14.27;;;11.48;;
77055;SDS011;67471;44.918;8.614;2024-01-06T03:06:16;13.10;;;10.20;;
77055;SDS011;67471;44.918;8.614;2024-01-06T03:09:20;11.85;;;8.88;;
77055;SDS011;67471;44.918;8.614;2024-01-06T03:12:23;10.68;;;8.27;;
77055;SDS011;67471;44.918;8.614;2024-01-06T03:15:27;10.68;;;7.47;;
77055;SDS011;67471;44.918;8.614;2024-01-06T03:18:30;11.30;;;8.23;;
77055;SDS011;67471;44.918;8.614;2024-01-06T03:21:34;9.75;;;8.00;;
77055;SDS011;67471;44.918;8.614;2024-01-06T03:24:39;12.80;;;9.00;;
77055;SDS011;67471;44.918;8.614;2024-01-06T03:27:43;14.05;;;9.88;;
77055;SDS011;67471;44.918;8.614;2024-01-06T03:30:47;14.18;;;9.95;;
77055;SDS011;67471;44.918;8.614;2024-01-06T03:33:50;10.73;;;8.38;;
77055;SDS011;67471;44.918;8.614;2024-01-06T03:36:57;10.70;;;7.88;;
77055;SDS011;67471;44.918;8.614;2024-01-06T03:40:01;12.10;;;8.90;;
77055;SDS011;67471;44.918;8.614;2024-01-06T03:43:04;11.40;;;8.68;;
77055;SDS011;67471;44.918;8.614;2024-01-06T03:46:08;12.63;;;8.57;;
77055;SDS011;67471;44.918;8.614;2024-01-06T03:49:13;11.35;;;8.07;;
77055;SDS011;67471;44.918;8.614;2024-01-06T03:52:16;11.48;;;8.23;;
77055;SDS011;67471;44.918;8.614;2024-01-06T03:55:20;12.50;;;8.38;;
77055;SDS011;67471;44.918;8.614;2024-01-06T03:58:24;13.48;;;8.50;;
77055;SDS011;67471;44.918;8.614;2024-01-06T04:01:28;10.95;;;8.13;;
77055;SDS011;67471;44.918;8.614;2024-01-06T04:04:32;12.85;;;8.00;;
77055;SDS011;67471;44.918;8.614;2024-01-06T04:07:36;10.48;;;7.90;;
77055;SDS011;67471;44.918;8.614;2024-01-06T04:10:39;11.98;;;8.45;;
77055;SDS011;67471;44.918;8.614;2024-01-06T04:13:44;11.55;;;7.32;;
77055;SDS011;67471;44.918;8.614;2024-01-06T04:16:47;11.23;;;8.65;;
77055;SDS011;67471;44.918;8.614;2024-01-06T04:19:51;11.15;;;7.78;;
77055;SDS011;67471;44.918;8.614;2024-01-06T04:22:55;10.77;;;7.10;;
77055;SDS011;67471;44.918;8.614;2024-01-06T04:25:58;11.48;;;8.18;;
77055;SDS011;67471;44.918;8.614;2024-01-06T04:29:02;11.02;;;8.32;;
77055;SDS011;67471;44.918;8.614;2024-01-06T04:32:06;10.65;;;7.90;;
77055;SDS011;67471;44.918;8.614;2024-01-06T04:35:10;10.68;;;7.57;;
77055;SDS011;67471;44.918;8.614;2024-01-06T04:38:14;11.52;;;8.52;;
77055;SDS011;67471;44.918;8.614;2024-01-06T04:41:18;11.60;;;8.32;;
77055;SDS011;67471;44.918;8.614;2024-01-06T04:44:21;12.38;;;8.43;;
77055;SDS011;67471;44.918;8.614;2024-01-06T04:47:25;10.18;;;7.65;;
77055;SDS011;67471;44.918;8.614;2024-01-06T04:50:29;12.00;;;8.15;;
77055;SDS011;67471;44.918;8.614;2024-01-06T04:53:33;10.50;;;7.55;;
77055;SDS011;67471;44.918;8.614;2024-01-06T04:56:37;14.68;;;8.27;;
77055;SDS011;67471;44.918;8.614;2024-01-06T04:59:41;11.43;;;7.75;;
77055;SDS011;67471;44.918;8.614;2024-01-06T05:02:44;9.88;;;7.43;;
77055;SDS011;67471;44.918;8.614;2024-01-06T05:05:48;9.57;;;7.47;;
77055;SDS011;67471;44.918;8.614;2024-01-06T05:08:52;11.23;;;8.38;;
77055;SDS011;67471;44.918;8.614;2024-01-06T05:11:56;12.55;;;9.23;;
77055;SDS011;67471;44.918;8.614;2024-01-06T05:14:59;12.05;;;7.60;;
77055;SDS011;67471;44.918;8.614;2024-01-06T05:18:03;10.95;;;7.78;;
77055;SDS011;67471;44.918;8.614;2024-01-06T05:21:07;12.23;;;8.13;;
77055;SDS011;67471;44.918;8.614;2024-01-06T05:24:11;11.00;;;7.25;;
77055;SDS011;67471;44.918;8.614;2024-01-06T05:27:14;11.85;;;8.07;;
77055;SDS011;67471;44.918;8.614;2024-01-06T05:30:18;12.15;;;8.27;;
77055;SDS011;67471;44.918;8.614;2024-01-06T05:33:22;11.65;;;7.95;;
77055;SDS011;67471;44.918;8.614;2024-01-06T05:36:26;13.80;;;8.88;;
77055;SDS011;67471;44.918;8.614;2024-01-06T05:39:29;12.20;;;8.30;;
77055;SDS011;67471;44.918;8.614;2024-01-06T05:42:33;12.00;;;8.52;;
77055;SDS011;67471;44.918;8.614;2024-01-06T05:45:37;11.73;;;8.07;;
77055;SDS011;67471;44.918;8.614;2024-01-06T05:48:41;10.60;;;8.07;;
77055;SDS011;67471;44.918;8.614;2024-01-06T05:51:46;10.27;;;8.02;;
77055;SDS011;67471;44.918;8.614;2024-01-06T05:54:49;12.23;;;7.95;;
77055;SDS011;67471;44.918;8.614;2024-01-06T05:57:53;11.10;;;7.93;;
77055;SDS011;67471;44.918;8.614;2024-01-06T06:00:57;13.25;;;8.45;;
77055;SDS011;67471;44.918;8.614;2024-01-06T06:04:01;12.60;;;8.32;;
77055;SDS011;67471;44.918;8.614;2024-01-06T06:07:04;10.25;;;7.75;;
77055;SDS011;67471;44.918;8.614;2024-01-06T06:10:09;13.10;;;8.48;;
77055;SDS011;67471;44.918;8.614;2024-01-06T06:13:14;12.90;;;8.38;;
77055;SDS011;67471;44.918;8.614;2024-01-06T06:16:18;12.13;;;8.15;;
77055;SDS011;67471;44.918;8.614;2024-01-06T06:19:22;12.77;;;9.05;;
77055;SDS011;67471;44.918;8.614;2024-01-06T06:22:26;13.15;;;8.70;;
77055;SDS011;67471;44.918;8.614;2024-01-06T06:25:33;11.05;;;8.23;;
77055;SDS011;67471;44.918;8.614;2024-01-06T06:28:37;12.45;;;8.52;;
77055;SDS011;67471;44.918;8.614;2024-01-06T06:31:40;13.00;;;8.93;;
77055;SDS011;67471;44.918;8.614;2024-01-06T06:34:46;12.13;;;8.73;;
77055;SDS011;67471;44.918;8.614;2024-01-06T06:37:50;11.68;;;8.18;;
77055;SDS011;67471;44.918;8.614;2024-01-06T06:40:54;11.38;;;8.57;;
77055;SDS011;67471;44.918;8.614;2024-01-06T06:43:57;12.38;;;8.88;;
77055;SDS011;67471;44.918;8.614;2024-01-06T06:47:01;14.45;;;8.73;;
77055;SDS011;67471;44.918;8.614;2024-01-06T06:50:05;13.07;;;9.13;;
77055;SDS011;67471;44.918;8.614;2024-01-06T06:53:09;10.27;;;8.15;;
77055;SDS011;67471;44.918;8.614;2024-01-06T06:56:13;11.05;;;8.32;;
77055;SDS011;67471;44.918;8.614;2024-01-06T06:59:20;12.80;;;8.82;;
77055;SDS011;67471;44.918;8.614;2024-01-06T07:02:24;11.82;;;8.88;;
77055;SDS011;67471;44.918;8.614;2024-01-06T07:05:28;11.82;;;8.38;;
77055;SDS011;67471;44.918;8.614;2024-01-06T07:08:32;14.45;;;9.68;;
77055;SDS011;67471;44.918;8.614;2024-01-06T07:11:36;12.75;;;9.18;;
77055;SDS011;67471;44.918;8.614;2024-01-06T07:14:39;12.48;;;8.77;;
77055;SDS011;67471;44.918;8.614;2024-01-06T07:17:43;12.18;;;8.45;;
77055;SDS011;67471;44.918;8.614;2024-01-06T07:20:47;14.55;;;9.82;;
77055;SDS011;67471;44.918;8.614;2024-01-06T07:23:51;14.00;;;9.63;;
77055;SDS011;67471;44.918;8.614;2024-01-06T07:26:55;13.32;;;9.90;;
77055;SDS011;67471;44.918;8.614;2024-01-06T07:29:59;14.32;;;9.43;;
77055;SDS011;67471;44.918;8.614;2024-01-06T07:33:03;12.30;;;8.88;;
77055;SDS011;67471;44.918;8.614;2024-01-06T07:36:06;13.18;;;9.38;;
77055;SDS011;67471;44.918;8.614;2024-01-06T07:39:10;11.98;;;9.10;;
77055;SDS011;67471;44.918;8.614;2024-01-06T07:42:14;14.40;;;9.43;;
77055;SDS011;67471;44.918;8.614;2024-01-06T07:45:18;14.80;;;8.90;;
77055;SDS011;67471;44.918;8.614;2024-01-06T07:48:21;13.65;;;8.50;;
77055;SDS011;67471;44.918;8.614;2024-01-06T07:51:25;12.52;;;8.68;;
77055;SDS011;67471;44.918;8.614;2024-01-06T07:54:29;11.95;;;8.23;;
77055;SDS011;67471;44.918;8.614;2024-01-06T07:57:33;13.73;;;8.82;;
77055;SDS011;67471;44.918;8.614;2024-01-06T08:00:37;11.75;;;8.48;;
77055;SDS011;67471;44.918;8.614;2024-01-06T08:03:40;13.95;;;9.18;;
77055;SDS011;67471;44.918;8.614;2024-01-06T08:06:44;13.93;;;8.68;;
77055;SDS011;67471;44.918;8.614;2024-01-06T08:09:48;13.88;;;9.57;;
77055;SDS011;67471;44.918;8.614;2024-01-06T08:12:51;11.45;;;8.82;;
77055;SDS011;67471;44.918;8.614;2024-01-06T08:15:55;11.05;;;7.50;;
77055;SDS011;67471;44.918;8.614;2024-01-06T08:18:59;10.95;;;7.25;;
77055;SDS011;67471;44.918;8.614;2024-01-06T08:22:03;11.32;;;8.13;;
77055;SDS011;67471;44.918;8.614;2024-01-06T08:25:06;11.63;;;7.78;;
77055;SDS011;67471;44.918;8.614;2024-01-06T08:28:10;11.50;;;8.02;;
77055;SDS011;67471;44.918;8.614;2024-01-06T08:31:14;12.75;;;8.18;;
77055;SDS011;67471;44.918;8.614;2024-01-06T08:34:18;12.68;;;8.57;;
77055;SDS011;67471;44.918;8.614;2024-01-06T08:37:22;14.57;;;9.23;;
77055;SDS011;67471;44.918;8.614;2024-01-06T08:40:27;14.45;;;8.95;;
77055;SDS011;67471;44.918;8.614;2024-01-06T08:43:31;12.25;;;8.23;;
77055;SDS011;67471;44.918;8.614;2024-01-06T08:46:35;13.10;;;8.35;;
77055;SDS011;67471;44.918;8.614;2024-01-06T08:49:38;8.65;;;6.88;;
77055;SDS011;67471;44.918;8.614;2024-01-06T08:52:42;10.02;;;7.35;;
77055;SDS011;67471;44.918;8.614;2024-01-06T08:55:46;10.93;;;7.22;;
77055;SDS011;67471;44.918;8.614;2024-01-06T08:58:50;15.40;;;9.20;;
77055;SDS011;67471;44.918;8.614;2024-01-06T09:01:53;11.05;;;7.95;;
77055;SDS011;67471;44.918;8.614;2024-01-06T09:04:57;9.63;;;6.55;;
77055;SDS011;67471;44.918;8.614;2024-01-06T09:08:01;9.23;;;6.43;;
77055;SDS011;67471;44.918;8.614;2024-01-06T09:11:05;9.30;;;6.47;;
77055;SDS011;67471;44.918;8.614;2024-01-06T09:14:09;8.60;;;6.00;;
77055;SDS011;67471;44.918;8.614;2024-01-06T09:17:14;9.88;;;5.85;;
77055;SDS011;67471;44.918;8.614;2024-01-06T09:20:17;11.88;;;6.88;;
77055;SDS011;67471;44.918;8.614;2024-01-06T09:23:26;9.23;;;7.18;;
77055;SDS011;67471;44.918;8.614;2024-01-06T09:26:29;9.98;;;6.93;;
77055;SDS011;67471;44.918;8.614;2024-01-06T09:29:33;12.82;;;7.05;;
77055;SDS011;67471;44.918;8.614;2024-01-06T09:32:37;10.88;;;7.22;;
77055;SDS011;67471;44.918;8.614;2024-01-06T09:35:41;10.82;;;7.13;;
77055;SDS011;67471;44.918;8.614;2024-01-06T09:38:45;11.35;;;7.85;;
77055;SDS011;67471;44.918;8.614;2024-01-06T09:41:49;14.93;;;8.10;;
77055;SDS011;67471;44.918;8.614;2024-01-06T09:44:53;10.40;;;7.03;;
77055;SDS011;67471;44.918;8.614;2024-01-06T09:47:57;11.02;;;7.05;;
77055;SDS011;67471;44.918;8.614;2024-01-06T09:51:01;10.70;;;8.25;;
77055;SDS011;67471;44.918;8.614;2024-01-06T09:54:10;9.15;;;6.70;;
77055;SDS011;67471;44.918;8.614;2024-01-06T09:57:16;9.45;;;6.55;;
77055;SDS011;67471;44.918;8.614;2024-01-06T10:00:20;11.07;;;7.00;;
77055;SDS011;67471;44.918;8.614;2024-01-06T10:03:24;9.90;;;7.70;;
77055;SDS011;67471;44.918;8.614;2024-01-06T10:06:29;8.95;;;6.85;;
77055;SDS011;67471;44.918;8.614;2024-01-06T10:09:33;13.35;;;7.75;;
77055;SDS011;67471;44.918;8.614;2024-01-06T10:12:38;9.05;;;7.35;;
77055;SDS011;67471;44.918;8.614;2024-01-06T10:15:45;10.05;;;6.90;;
77055;SDS011;67471;44.918;8.614;2024-01-06T10:18:49;8.60;;;6.15;;
77055;SDS011;67471;44.918;8.614;2024-01-06T10:21:53;10.00;;;6.00;;
77055;SDS011;67471;44.918;8.614;2024-01-06T10:24:57;10.95;;;7.22;;
77055;SDS011;67471;44.918;8.614;2024-01-06T10:28:01;9.90;;;6.55;;
77055;SDS011;67471;44.918;8.614;2024-01-06T10:31:07;12.38;;;7.30;;
77055;SDS011;67471;44.918;8.614;2024-01-06T10:34:11;10.25;;;6.80;;
77055;SDS011;67471;44.918;8.614;2024-01-06T10:37:16;8.90;;;6.68;;
77055;SDS011;67471;44.918;8.614;2024-01-06T10:40:20;10.10;;;6.93;;
77055;SDS011;67471;44.918;8.614;2024-01-06T10:43:25;9.60;;;7.05;;
77055;SDS011;67471;44.918;8.614;2024-01-06T10:46:30;9.43;;;7.40;;
77055;SDS011;67471;44.918;8.614;2024-01-06T10:49:35;8.38;;;6.38;;
77055;SDS011;67471;44.918;8.614;2024-01-06T10:52:40;8.50;;;6.03;;
77055;SDS011;67471;44.918;8.614;2024-01-06T10:55:45;9.07;;;6.05;;
77055;SDS011;67471;44.918;8.614;2024-01-06T10:58:53;9.52;;;6.63;;
77055;SDS011;67471;44.918;8.614;2024-01-06T11:01:57;9.13;;;6.20;;
77055;SDS011;67471;44.918;8.614;2024-01-06T11:05:02;8.85;;;5.80;;
77055;SDS011;67471;44.918;8.614;2024-01-06T11:08:10;8.02;;;5.55;;
77055;SDS011;67471;44.918;8.614;2024-01-06T11:11:18;7.28;;;5.63;;
77055;SDS011;67471;44.918;8.614;2024-01-06T11:14:23;8.77;;;5.20;;
77055;SDS011;67471;44.918;8.614;2024-01-06T11:24:18;7.43;;;5.68;;
77055;SDS011;67471;44.918;8.614;2024-01-06T11:27:28;7.25;;;5.20;;
77055;SDS011;67471;44.918;8.614;2024-01-06T11:30:33;6.85;;;5.30;;
77055;SDS011;67471;44.918;8.614;2024-01-06T11:33:45;8.05;;;4.95;;
77055;SDS011;67471;44.918;8.614;2024-01-06T11:36:52;6.75;;;4.97;;
77055;SDS011;67471;44.918;8.614;2024-01-06T11:39:56;6.93;;;4.85;;
77055;SDS011;67471;44.918;8.614;2024-01-06T11:43:10;6.90;;;4.90;;
77055;SDS011;67471;44.918;8.614;2024-01-06T11:46:19;7.28;;;4.60;;
77055;SDS011;67471;44.918;8.614;2024-01-06T11:49:23;7.10;;;4.63;;
77055;SDS011;67471;44.918;8.614;2024-01-06T11:52:31;7.88;;;5.15;;
77055;SDS011;67471;44.918;8.614;2024-01-06T11:55:38;7.05;;;5.10;;
77055;SDS011;67471;44.918;8.614;2024-01-06T11:58:42;8.25;;;5.28;;
77055;SDS011;67471;44.918;8.614;2024-01-06T12:01:46;10.73;;;6.55;;
77055;SDS011;67471;44.918;8.614;2024-01-06T12:04:50;13.48;;;9.75;;
77055;SDS011;67471;44.918;8.614;2024-01-06T12:08:02;9.32;;;6.88;;
77055;SDS011;67471;44.918;8.614;2024-01-06T12:11:10;7.57;;;5.10;;
77055;SDS011;67471;44.918;8.614;2024-01-06T12:14:14;7.53;;;5.22;;
77055;SDS011;67471;44.918;8.614;2024-01-06T12:17:19;7.35;;;5.00;;
77055;SDS011;67471;44.918;8.614;2024-01-06T12:20:25;7.47;;;4.88;;
77055;SDS011;67471;44.918;8.614;2024-01-06T12:23:32;8.07;;;5.10;;
77055;SDS011;67471;44.918;8.614;2024-01-06T12:26:36;7.10;;;4.68;;
77055;SDS011;67471;44.918;8.614;2024-01-06T12:29:40;6.47;;;4.78;;
77055;SDS011;67471;44.918;8.614;2024-01-06T12:32:47;5.68;;;4.80;;
77055;SDS011;67471;44.918;8.614;2024-01-06T12:35:57;6.70;;;4.75;;
77055;SDS011;67471;44.918;8.614;2024-01-06T12:39:03;7.13;;;4.70;;
77055;SDS011;67471;44.918;8.614;2024-01-06T12:42:07;6.88;;;4.80;;
77055;SDS011;67471;44.918;8.614;2024-01-06T12:45:11;7.25;;;4.70;;
77055;SDS011;67471;44.918;8.614;2024-01-06T12:48:16;7.20;;;4.53;;
77055;SDS011;67471;44.918;8.614;2024-01-06T12:51:20;7.05;;;5.20;;
77055;SDS011;67471;44.918;8.614;2024-01-06T12:54:23;8.02;;;4.90;;
77055;SDS011;67471;44.918;8.614;2024-01-06T12:57:27;7.03;;;4.50;;
77055;SDS011;67471;44.918;8.614;2024-01-06T13:00:31;6.28;;;4.60;;
77055;SDS011;67471;44.918;8.614;2024-01-06T13:03:35;6.15;;;4.57;;
77055;SDS011;67471;44.918;8.614;2024-01-06T13:06:39;6.72;;;4.43;;
77055;SDS011;67471;44.918;8.614;2024-01-06T13:09:43;6.57;;;4.50;;
77055;SDS011;67471;44.918;8.614;2024-01-06T13:12:47;5.85;;;4.38;;
77055;SDS011;67471;44.918;8.614;2024-01-06T13:15:51;6.68;;;4.35;;
77055;SDS011;67471;44.918;8.614;2024-01-06T13:18:55;5.95;;;4.43;;
77055;SDS011;67471;44.918;8.614;2024-01-06T13:21:59;7.07;;;5.13;;
77055;SDS011;67471;44.918;8.614;2024-01-06T13:25:03;7.18;;;4.82;;
77055;SDS011;67471;44.918;8.614;2024-01-06T13:28:10;6.10;;;4.95;;
77055;SDS011;67471;44.918;8.614;2024-01-06T13:31:15;6.40;;;4.35;;
77055;SDS011;67471;44.918;8.614;2024-01-06T13:34:19;7.40;;;5.30;;
77055;SDS011;67471;44.918;8.614;2024-01-06T13:37:23;7.40;;;5.15;;
77055;SDS011;67471;44.918;8.614;2024-01-06T13:40:26;7.50;;;4.82;;
77055;SDS011;67471;44.918;8.614;2024-01-06T13:43:30;7.50;;;5.30;;
77055;SDS011;67471;44.918;8.614;2024-01-06T13:46:35;7.15;;;5.55;;
77055;SDS011;67471;44.918;8.614;2024-01-06T13:49:39;7.70;;;5.78;;
77055;SDS011;67471;44.918;8.614;2024-01-06T13:52:42;10.32;;;7.10;;
77055;SDS011;67471;44.918;8.614;2024-01-06T13:55:46;7.30;;;5.25;;
77055;SDS011;67471;44.918;8.614;2024-01-06T13:58:50;7.25;;;5.47;;
77055;SDS011;67471;44.918;8.614;2024-01-06T14:01:54;7.97;;;5.03;;
77055;SDS011;67471;44.918;8.614;2024-01-06T14:04:58;6.88;;;4.63;;
77055;SDS011;67471;44.918;8.614;2024-01-06T14:08:02;7.15;;;5.32;;
77055;SDS011;67471;44.918;8.614;2024-01-06T14:11:06;6.80;;;5.28;;
77055;SDS011;67471;44.918;8.614;2024-01-06T14:14:10;7.15;;;5.20;;
77055;SDS011;67471;44.918;8.614;2024-01-06T14:17:14;6.10;;;4.38;;
77055;SDS011;67471;44.918;8.614;2024-01-06T14:20:18;7.63;;;4.43;;
77055;SDS011;67471;44.918;8.614;2024-01-06T14:23:22;7.13;;;4.57;;
77055;SDS011;67471;44.918;8.614;2024-01-06T14:26:27;12.25;;;6.88;;
77055;SDS011;67471;44.918;8.614;2024-01-06T14:29:31;8.75;;;5.15;;
77055;SDS011;67471;44.918;8.614;2024-01-06T14:32:35;8.27;;;5.15;;
77055;SDS011;67471;44.918;8.614;2024-01-06T14:35:40;6.95;;;4.63;;
77055;SDS011;67471;44.918;8.614;2024-01-06T14:38:44;6.85;;;5.00;;
77055;SDS011;67471;44.918;8.614;2024-01-06T14:41:48;5.47;;;3.92;;
77055;SDS011;67471;44.918;8.614;2024-01-06T14:44:52;5.97;;;4.38;;
77055;SDS011;67471;44.918;8.614;2024-01-06T14:47:56;6.63;;;4.10;;
77055;SDS011;67471;44.918;8.614;2024-01-06T14:51:01;5.45;;;4.00;;
77055;SDS011;67471;44.918;8.614;2024-01-06T14:54:07;5.63;;;4.10;;
77055;SDS011;67471;44.918;8.614;2024-01-06T14:57:11;5.82;;;4.43;;
77055;SDS011;67471;44.918;8.614;2024-01-06T15:00:15;5.43;;;3.60;;
77055;SDS011;67471;44.918;8.614;2024-01-06T15:03:19;5.68;;;4.03;;
77055;SDS011;67471;44.918;8.614;2024-01-06T15:06:23;5.65;;;4.20;;
77055;SDS011;67471;44.918;8.614;2024-01-06T15:09:27;5.97;;;3.97;;
77055;SDS011;67471;44.918;8.614;2024-01-06T15:12:31;6.60;;;4.80;;
77055;SDS011;67471;44.918;8.614;2024-01-06T15:15:35;5.10;;;3.75;;
77055;SDS011;67471;44.918;8.614;2024-01-06T15:18:39;6.00;;;4.53;;
77055;SDS011;67471;44.918;8.614;2024-01-06T15:21:43;5.78;;;3.72;;
77055;SDS011;67471;44.918;8.614;2024-01-06T15:24:46;5.60;;;3.92;;
77055;SDS011;67471;44.918;8.614;2024-01-06T15:27:50;5.43;;;4.25;;
77055;SDS011;67471;44.918;8.614;2024-01-06T15:30:54;9.73;;;5.35;;
77055;SDS011;67471;44.918;8.614;2024-01-06T15:34:01;6.53;;;4.88;;
77055;SDS011;67471;44.918;8.614;2024-01-06T15:37:15;7.45;;;4.32;;
77055;SDS011;67471;44.918;8.614;2024-01-06T15:40:19;8.00;;;4.93;;
77055;SDS011;67471;44.918;8.614;2024-01-06T15:43:23;8.98;;;5.40;;
77055;SDS011;67471;44.918;8.614;2024-01-06T15:46:26;9.85;;;6.57;;
77055;SDS011;67471;44.918;8.614;2024-01-06T15:49:30;9.70;;;5.88;;
77055;SDS011;67471;44.918;8.614;2024-01-06T15:52:35;12.00;;;7.53;;
77055;SDS011;67471;44.918;8.614;2024-01-06T15:55:39;11.50;;;7.63;;
77055;SDS011;67471;44.918;8.614;2024-01-06T15:58:43;13.43;;;8.25;;
77055;SDS011;67471;44.918;8.614;2024-01-06T16:01:47;13.98;;;9.45;;
77055;SDS011;67471;44.918;8.614;2024-01-06T16:04:52;14.18;;;9.68;;
77055;SDS011;67471;44.918;8.614;2024-01-06T16:07:56;12.00;;;8.20;;
77055;SDS011;67471;44.918;8.614;2024-01-06T16:10:59;11.48;;;7.88;;
77055;SDS011;67471;44.918;8.614;2024-01-06T16:14:05;11.05;;;7.65;;
77055;SDS011;67471;44.918;8.614;2024-01-06T16:17:11;12.77;;;8.53;;
77055;SDS011;67471;44.918;8.614;2024-01-06T16:20:15;11.57;;;8.52;;
77055;SDS011;67471;44.918;8.614;2024-01-06T16:23:19;10.48;;;8.32;;
77055;SDS011;67471;44.918;8.614;2024-01-06T16:26:27;8.85;;;6.00;;
77055;SDS011;67471;44.918;8.614;2024-01-06T16:29:31;9.15;;;5.80;;
77055;SDS011;67471;44.918;8.614;2024-01-06T16:32:35;8.13;;;5.90;;
77055;SDS011;67471;44.918;8.614;2024-01-06T16:35:39;6.57;;;5.28;;
77055;SDS011;67471;44.918;8.614;2024-01-06T16:38:44;9.10;;;5.53;;
77055;SDS011;67471;44.918;8.614;2024-01-06T16:41:48;6.50;;;5.35;;
77055;SDS011;67471;44.918;8.614;2024-01-06T16:44:52;7.95;;;5.40;;
77055;SDS011;67471;44.918;8.614;2024-01-06T16:47:57;7.97;;;5.00;;
77055;SDS011;67471;44.918;8.614;2024-01-06T16:51:01;7.05;;;5.63;;
77055;SDS011;67471;44.918;8.614;2024-01-06T16:54:05;6.65;;;5.05;;
77055;SDS011;67471;44.918;8.614;2024-01-06T16:57:09;7.10;;;5.03;;
77055;SDS011;67471;44.918;8.614;2024-01-06T17:00:13;7.05;;;5.28;;
77055;SDS011;67471;44.918;8.614;2024-01-06T17:03:17;9.25;;;6.28;;
77055;SDS011;67471;44.918;8.614;2024-01-06T17:06:21;10.57;;;7.75;;
77055;SDS011;67471;44.918;8.614;2024-01-06T17:09:25;8.75;;;6.60;;
77055;SDS011;67471;44.918;8.614;2024-01-06T17:12:29;9.88;;;6.63;;
77055;SDS011;67471;44.918;8.614;2024-01-06T17:15:33;9.75;;;6.20;;
77055;SDS011;67471;44.918;8.614;2024-01-06T17:18:36;7.80;;;5.60;;
77055;SDS011;67471;44.918;8.614;2024-01-06T17:21:40;21.48;;;14.43;;
77055;SDS011;67471;44.918;8.614;2024-01-06T17:24:44;28.05;;;20.90;;
77055;SDS011;67471;44.918;8.614;2024-01-06T17:27:48;15.88;;;11.00;;
77055;SDS011;67471;44.918;8.614;2024-01-06T17:30:52;13.40;;;9.85;;
77055;SDS011;67471;44.918;8.614;2024-01-06T17:33:56;12.82;;;9.52;;
77055;SDS011;67471;44.918;8.614;2024-01-06T17:37:00;14.27;;;9.00;;
77055;SDS011;67471;44.918;8.614;2024-01-06T17:40:04;9.55;;;7.50;;
77055;SDS011;67471;44.918;8.614;2024-01-06T17:43:08;10.13;;;7.97;;
77055;SDS011;67471;44.918;8.614;2024-01-06T17:46:11;13.20;;;9.70;;
77055;SDS011;67471;44.918;8.614;2024-01-06T17:49:15;11.65;;;8.45;;
77055;SDS011;67471;44.918;8.614;2024-01-06T17:52:19;12.15;;;8.45;;
77055;SDS011;67471;44.918;8.614;2024-01-06T17:55:23;8.88;;;7.22;;
77055;SDS011;67471;44.918;8.614;2024-01-06T17:58:27;8.60;;;6.40;;
77055;SDS011;67471;44.918;8.614;2024-01-06T18:01:30;9.68;;;7.03;;
77055;SDS011;67471;44.918;8.614;2024-01-06T18:04:34;10.55;;;7.40;;
77055;SDS011;67471;44.918;8.614;2024-01-06T18:07:38;13.85;;;9.90;;
77055;SDS011;67471;44.918;8.614;2024-01-06T18:10:42;11.25;;;8.88;;
77055;SDS011;67471;44.918;8.614;2024-01-06T18:13:45;13.30;;;8.02;;
77055;SDS011;67471;44.918;8.614;2024-01-06T18:16:49;10.52;;;7.97;;
77055;SDS011;67471;44.918;8.614;2024-01-06T18:19:53;10.75;;;8.68;;
77055;SDS011;67471;44.918;8.614;2024-01-06T18:22:57;12.70;;;8.68;;
77055;SDS011;67471;44.918;8.614;2024-01-06T18:26:03;12.85;;;8.63;;
77055;SDS011;67471;44.918;8.614;2024-01-06T18:29:08;19.40;;;12.50;;